sensor_id;sensor_type;location;lat;lon;timestamp;P1;durP1;ratioP1;P2;durP2;ratioP2
56728;SDS011;42612;52.232;7.560;2023-11-21T00:00:17;5.97;;;3.70;;
56728;SDS011;42612;52.232;7.560;2023-11-21T00:02:43;6.35;;;3.97;;
56728;SDS011;42612;52.232;7.560;2023-11-21T00:05:13;4.68;;;3.58;;
56728;SDS011;42612;52.232;7.560;2023-11-21T00:07:40;6.00;;;3.87;;
56728;SDS011;42612;52.232;7.560;2023-11-21T00:10:07;6.95;;;3.80;;
56728;SDS011;42612;52.232;7.560;2023-11-21T00:12:34;8.02;;;3.83;;
56728;SDS011;42612;52.232;7.560;2023-11-21T00:15:01;7.07;;;3.95;;
56728;SDS011;42612;52.232;7.560;2023-11-21T00:17:27;5.93;;;3.95;;
56728;SDS011;42612;52.232;7.560;2023-11-21T00:19:53;5.55;;;3.35;;
56728;SDS011;42612;52.232;7.560;2023-11-21T00:22:19;6.32;;;3.60;;
56728;SDS011;42612;52.232;7.560;2023-11-21T00:24:45;3.92;;;2.60;;
56728;SDS011;42612;52.232;7.560;2023-11-21T00:27:11;5.35;;;3.53;;
56728;SDS011;42612;52.232;7.560;2023-11-21T00:29:37;5.90;;;4.07;;
56728;SDS011;42612;52.232;7.560;2023-11-21T00:32:04;7.15;;;3.55;;
56728;SDS011;42612;52.232;7.560;2023-11-21T00:34:31;4.43;;;3.40;;
56728;SDS011;42612;52.232;7.560;2023-11-21T00:36:57;6.40;;;4.10;;
56728;SDS011;42612;52.232;7.560;2023-11-21T00:39:23;6.90;;;3.78;;
56728;SDS011;42612;52.232;7.560;2023-11-21T00:41:50;11.20;;;4.20;;
56728;SDS011;42612;52.232;7.560;2023-11-21T00:44:17;7.30;;;4.18;;
56728;SDS011;42612;52.232;7.560;2023-11-21T00:46:42;8.85;;;4.55;;
56728;SDS011;42612;52.232;7.560;2023-11-21T00:49:08;9.13;;;3.67;;
56728;SDS011;42612;52.232;7.560;2023-11-21T00:51:34;5.65;;;3.92;;
56728;SDS011;42612;52.232;7.560;2023-11-21T00:54:00;7.60;;;4.60;;
56728;SDS011;42612;52.232;7.560;2023-11-21T00:56:26;5.20;;;4.38;;
56728;SDS011;42612;52.232;7.560;2023-11-21T00:58:52;8.23;;;4.07;;
56728;SDS011;42612;52.232;7.560;2023-11-21T01:01:19;6.73;;;4.43;;
56728;SDS011;42612;52.232;7.560;2023-11-21T01:03:46;7.70;;;5.05;;
56728;SDS011;42612;52.232;7.560;2023-11-21T01:06:11;7.03;;;4.25;;
56728;SDS011;42612;52.232;7.560;2023-11-21T01:08:37;7.68;;;4.70;;
56728;SDS011;42612;52.232;7.560;2023-11-21T01:11:03;6.90;;;4.07;;
56728;SDS011;42612;52.232;7.560;2023-11-21T01:13:29;8.65;;;4.85;;
56728;SDS011;42612;52.232;7.560;2023-11-21T01:15:55;6.13;;;4.80;;
56728;SDS011;42612;52.232;7.560;2023-11-21T01:18:22;5.93;;;4.40;;
56728;SDS011;42612;52.232;7.560;2023-11-21T01:20:50;10.40;;;4.40;;
56728;SDS011;42612;52.232;7.560;2023-11-21T01:23:18;7.90;;;3.92;;
56728;SDS011;42612;52.232;7.560;2023-11-21T01:25:44;7.35;;;4.65;;
56728;SDS011;42612;52.232;7.560;2023-11-21T01:28:10;6.90;;;4.30;;
56728;SDS011;42612;52.232;7.560;2023-11-21T01:30:35;9.93;;;5.07;;
56728;SDS011;42612;52.232;7.560;2023-11-21T01:33:01;10.85;;;5.18;;
56728;SDS011;42612;52.232;7.560;2023-11-21T01:35:27;8.43;;;5.07;;
56728;SDS011;42612;52.232;7.560;2023-11-21T01:37:52;8.82;;;4.90;;
56728;SDS011;42612;52.232;7.560;2023-11-21T01:40:18;10.77;;;5.13;;
56728;SDS011;42612;52.232;7.560;2023-11-21T01:42:44;8.65;;;5.28;;
56728;SDS011;42612;52.232;7.560;2023-11-21T01:45:11;7.63;;;5.15;;
56728;SDS011;42612;52.232;7.560;2023-11-21T01:47:38;8.50;;;5.10;;
56728;SDS011;42612;52.232;7.560;2023-11-21T01:50:06;9.07;;;5.30;;
56728;SDS011;42612;52.232;7.560;2023-11-21T01:52:39;10.95;;;5.90;;
56728;SDS011;42612;52.232;7.560;2023-11-21T01:55:06;12.10;;;5.90;;
56728;SDS011;42612;52.232;7.560;2023-11-21T01:57:33;9.75;;;6.03;;
56728;SDS011;42612;52.232;7.560;2023-11-21T02:00:02;9.82;;;5.38;;
56728;SDS011;42612;52.232;7.560;2023-11-21T02:02:43;9.65;;;4.93;;
56728;SDS011;42612;52.232;7.560;2023-11-21T02:05:10;10.98;;;5.90;;
56728;SDS011;42612;52.232;7.560;2023-11-21T02:07:37;9.82;;;5.13;;
56728;SDS011;42612;52.232;7.560;2023-11-21T02:10:08;8.25;;;5.53;;
56728;SDS011;42612;52.232;7.560;2023-11-21T02:12:34;8.43;;;4.60;;
56728;SDS011;42612;52.232;7.560;2023-11-21T02:15:03;10.70;;;5.85;;
56728;SDS011;42612;52.232;7.560;2023-11-21T02:17:34;12.18;;;5.68;;
56728;SDS011;42612;52.232;7.560;2023-11-21T02:20:01;9.57;;;5.60;;
56728;SDS011;42612;52.232;7.560;2023-11-21T02:22:28;12.25;;;6.20;;
56728;SDS011;42612;52.232;7.560;2023-11-21T02:24:57;9.57;;;5.85;;
56728;SDS011;42612;52.232;7.560;2023-11-21T02:27:23;10.25;;;5.82;;
56728;SDS011;42612;52.232;7.560;2023-11-21T02:29:49;13.07;;;6.88;;
56728;SDS011;42612;52.232;7.560;2023-11-21T02:32:15;12.57;;;5.50;;
56728;SDS011;42612;52.232;7.560;2023-11-21T02:34:44;10.18;;;6.15;;
56728;SDS011;42612;52.232;7.560;2023-11-21T02:37:10;8.20;;;5.68;;
56728;SDS011;42612;52.232;7.560;2023-11-21T02:39:35;9.02;;;5.25;;
56728;SDS011;42612;52.232;7.560;2023-11-21T02:42:01;13.55;;;5.88;;
56728;SDS011;42612;52.232;7.560;2023-11-21T02:44:27;10.73;;;6.03;;
56728;SDS011;42612;52.232;7.560;2023-11-21T02:46:52;14.43;;;6.65;;
56728;SDS011;42612;52.232;7.560;2023-11-21T02:49:18;13.98;;;7.03;;
56728;SDS011;42612;52.232;7.560;2023-11-21T02:51:44;11.70;;;5.82;;
56728;SDS011;42612;52.232;7.560;2023-11-21T02:54:11;10.32;;;6.07;;
56728;SDS011;42612;52.232;7.560;2023-11-21T02:56:36;11.70;;;7.03;;
56728;SDS011;42612;52.232;7.560;2023-11-21T02:59:02;15.07;;;7.43;;
56728;SDS011;42612;52.232;7.560;2023-11-21T03:01:28;19.25;;;7.10;;
56728;SDS011;42612;52.232;7.560;2023-11-21T03:03:54;13.98;;;7.65;;
56728;SDS011;42612;52.232;7.560;2023-11-21T03:06:20;16.83;;;8.05;;
56728;SDS011;42612;52.232;7.560;2023-11-21T03:08:47;13.05;;;7.40;;
56728;SDS011;42612;52.232;7.560;2023-11-21T03:11:13;17.58;;;6.90;;
56728;SDS011;42612;52.232;7.560;2023-11-21T03:13:39;16.88;;;7.60;;
56728;SDS011;42612;52.232;7.560;2023-11-21T03:16:09;18.00;;;8.02;;
56728;SDS011;42612;52.232;7.560;2023-11-21T03:18:35;21.92;;;9.68;;
56728;SDS011;42612;52.232;7.560;2023-11-21T03:21:04;18.88;;;8.73;;
56728;SDS011;42612;52.232;7.560;2023-11-21T03:23:31;17.60;;;9.10;;
56728;SDS011;42612;52.232;7.560;2023-11-21T03:25:57;16.17;;;8.07;;
56728;SDS011;42612;52.232;7.560;2023-11-21T03:28:24;19.65;;;8.73;;
56728;SDS011;42612;52.232;7.560;2023-11-21T03:30:51;19.42;;;8.90;;
56728;SDS011;42612;52.232;7.560;2023-11-21T03:33:17;20.35;;;8.52;;
56728;SDS011;42612;52.232;7.560;2023-11-21T03:35:43;19.05;;;8.57;;
56728;SDS011;42612;52.232;7.560;2023-11-21T03:38:10;20.92;;;8.85;;
56728;SDS011;42612;52.232;7.560;2023-11-21T03:40:36;21.95;;;8.52;;
56728;SDS011;42612;52.232;7.560;2023-11-21T03:43:02;19.42;;;8.43;;
56728;SDS011;42612;52.232;7.560;2023-11-21T03:45:28;24.40;;;9.27;;
56728;SDS011;42612;52.232;7.560;2023-11-21T03:47:53;20.75;;;8.38;;
56728;SDS011;42612;52.232;7.560;2023-11-21T03:50:19;17.52;;;8.02;;
56728;SDS011;42612;52.232;7.560;2023-11-21T03:52:45;19.58;;;8.23;;
56728;SDS011;42612;52.232;7.560;2023-11-21T03:55:10;21.50;;;10.10;;
56728;SDS011;42612;52.232;7.560;2023-11-21T03:57:36;21.50;;;8.77;;
56728;SDS011;42612;52.232;7.560;2023-11-21T04:00:02;22.10;;;9.13;;
56728;SDS011;42612;52.232;7.560;2023-11-21T04:02:33;17.75;;;9.50;;
56728;SDS011;42612;52.232;7.560;2023-11-21T04:04:59;21.10;;;9.07;;
56728;SDS011;42612;52.232;7.560;2023-11-21T04:07:25;30.33;;;10.05;;
56728;SDS011;42612;52.232;7.560;2023-11-21T04:09:50;20.25;;;9.45;;
56728;SDS011;42612;52.232;7.560;2023-11-21T04:12:16;24.83;;;10.88;;
56728;SDS011;42612;52.232;7.560;2023-11-21T04:14:42;23.15;;;10.00;;
56728;SDS011;42612;52.232;7.560;2023-11-21T04:17:07;21.73;;;9.57;;
56728;SDS011;42612;52.232;7.560;2023-11-21T04:19:34;19.42;;;9.00;;
56728;SDS011;42612;52.232;7.560;2023-11-21T04:22:00;24.73;;;9.85;;
56728;SDS011;42612;52.232;7.560;2023-11-21T04:24:25;23.35;;;10.00;;
56728;SDS011;42612;52.232;7.560;2023-11-21T04:26:51;25.20;;;9.82;;
56728;SDS011;42612;52.232;7.560;2023-11-21T04:29:18;20.15;;;8.65;;
56728;SDS011;42612;52.232;7.560;2023-11-21T04:31:44;19.25;;;8.95;;
56728;SDS011;42612;52.232;7.560;2023-11-21T04:34:09;22.05;;;9.10;;
56728;SDS011;42612;52.232;7.560;2023-11-21T04:36:35;20.27;;;8.07;;
56728;SDS011;42612;52.232;7.560;2023-11-21T04:39:01;17.33;;;8.13;;
56728;SDS011;42612;52.232;7.560;2023-11-21T04:41:27;18.85;;;7.75;;
56728;SDS011;42612;52.232;7.560;2023-11-21T04:43:52;18.15;;;8.05;;
56728;SDS011;42612;52.232;7.560;2023-11-21T04:46:18;20.95;;;9.25;;
56728;SDS011;42612;52.232;7.560;2023-11-21T04:48:44;19.52;;;8.68;;
56728;SDS011;42612;52.232;7.560;2023-11-21T04:51:09;24.27;;;9.35;;
56728;SDS011;42612;52.232;7.560;2023-11-21T04:53:37;17.63;;;8.35;;
56728;SDS011;42612;52.232;7.560;2023-11-21T04:56:04;24.30;;;8.63;;
56728;SDS011;42612;52.232;7.560;2023-11-21T04:58:30;18.83;;;8.52;;
56728;SDS011;42612;52.232;7.560;2023-11-21T05:00:56;15.82;;;7.95;;
56728;SDS011;42612;52.232;7.560;2023-11-21T05:03:22;17.13;;;7.13;;
56728;SDS011;42612;52.232;7.560;2023-11-21T05:05:49;18.70;;;7.85;;
56728;SDS011;42612;52.232;7.560;2023-11-21T05:08:14;20.15;;;8.57;;
56728;SDS011;42612;52.232;7.560;2023-11-21T05:10:40;18.50;;;8.50;;
56728;SDS011;42612;52.232;7.560;2023-11-21T05:13:06;18.75;;;9.15;;
56728;SDS011;42612;52.232;7.560;2023-11-21T05:15:35;22.60;;;9.68;;
56728;SDS011;42612;52.232;7.560;2023-11-21T05:18:01;21.23;;;9.88;;
56728;SDS011;42612;52.232;7.560;2023-11-21T05:20:26;20.08;;;8.65;;
56728;SDS011;42612;52.232;7.560;2023-11-21T05:22:53;21.73;;;9.02;;
56728;SDS011;42612;52.232;7.560;2023-11-21T05:25:18;24.15;;;10.40;;
56728;SDS011;42612;52.232;7.560;2023-11-21T05:27:47;21.52;;;9.38;;
56728;SDS011;42612;52.232;7.560;2023-11-21T05:30:13;16.45;;;9.35;;
56728;SDS011;42612;52.232;7.560;2023-11-21T05:32:39;19.95;;;8.68;;
56728;SDS011;42612;52.232;7.560;2023-11-21T05:35:09;27.85;;;10.45;;
56728;SDS011;42612;52.232;7.560;2023-11-21T05:37:40;22.92;;;9.18;;
56728;SDS011;42612;52.232;7.560;2023-11-21T05:40:07;15.15;;;8.57;;
56728;SDS011;42612;52.232;7.560;2023-11-21T05:42:34;20.30;;;9.40;;
56728;SDS011;42612;52.232;7.560;2023-11-21T05:45:00;17.90;;;9.85;;
56728;SDS011;42612;52.232;7.560;2023-11-21T05:47:35;19.70;;;9.32;;
56728;SDS011;42612;52.232;7.560;2023-11-21T05:50:06;19.05;;;8.57;;
56728;SDS011;42612;52.232;7.560;2023-11-21T05:52:37;19.33;;;8.65;;
56728;SDS011;42612;52.232;7.560;2023-11-21T05:55:06;18.42;;;8.48;;
56728;SDS011;42612;52.232;7.560;2023-11-21T05:57:33;20.90;;;8.77;;
56728;SDS011;42612;52.232;7.560;2023-11-21T06:00:10;18.55;;;8.50;;
56728;SDS011;42612;52.232;7.560;2023-11-21T06:02:40;18.10;;;8.15;;
56728;SDS011;42612;52.232;7.560;2023-11-21T06:05:06;18.92;;;10.55;;
56728;SDS011;42612;52.232;7.560;2023-11-21T06:07:33;20.67;;;9.32;;
56728;SDS011;42612;52.232;7.560;2023-11-21T06:10:00;23.55;;;9.68;;
56728;SDS011;42612;52.232;7.560;2023-11-21T06:12:30;22.65;;;10.02;;
56728;SDS011;42612;52.232;7.560;2023-11-21T06:15:00;22.85;;;9.95;;
56728;SDS011;42612;52.232;7.560;2023-11-21T06:17:30;23.52;;;10.95;;
56728;SDS011;42612;52.232;7.560;2023-11-21T06:19:56;22.92;;;10.25;;
56728;SDS011;42612;52.232;7.560;2023-11-21T06:22:22;25.98;;;10.25;;
56728;SDS011;42612;52.232;7.560;2023-11-21T06:24:48;23.63;;;10.60;;
56728;SDS011;42612;52.232;7.560;2023-11-21T06:27:13;21.92;;;10.70;;
56728;SDS011;42612;52.232;7.560;2023-11-21T06:29:40;25.90;;;10.80;;
56728;SDS011;42612;52.232;7.560;2023-11-21T06:32:07;25.52;;;10.18;;
56728;SDS011;42612;52.232;7.560;2023-11-21T06:34:33;26.08;;;11.93;;
56728;SDS011;42612;52.232;7.560;2023-11-21T06:36:59;26.80;;;11.25;;
56728;SDS011;42612;52.232;7.560;2023-11-21T06:39:24;22.13;;;11.05;;
56728;SDS011;42612;52.232;7.560;2023-11-21T06:41:50;20.17;;;10.25;;
56728;SDS011;42612;52.232;7.560;2023-11-21T06:44:16;29.92;;;12.70;;
56728;SDS011;42612;52.232;7.560;2023-11-21T06:46:41;26.73;;;12.15;;
56728;SDS011;42612;52.232;7.560;2023-11-21T06:49:07;27.85;;;12.75;;
56728;SDS011;42612;52.232;7.560;2023-11-21T06:51:34;30.35;;;11.23;;
56728;SDS011;42612;52.232;7.560;2023-11-21T06:53:59;30.25;;;11.63;;
56728;SDS011;42612;52.232;7.560;2023-11-21T06:56:25;31.35;;;11.68;;
56728;SDS011;42612;52.232;7.560;2023-11-21T06:58:51;28.52;;;11.48;;
56728;SDS011;42612;52.232;7.560;2023-11-21T07:01:18;26.42;;;11.30;;
56728;SDS011;42612;52.232;7.560;2023-11-21T07:03:44;28.85;;;12.32;;
56728;SDS011;42612;52.232;7.560;2023-11-21T07:06:10;24.40;;;11.60;;
56728;SDS011;42612;52.232;7.560;2023-11-21T07:08:36;26.13;;;11.65;;
56728;SDS011;42612;52.232;7.560;2023-11-21T07:11:03;25.85;;;11.32;;
56728;SDS011;42612;52.232;7.560;2023-11-21T07:13:29;28.63;;;11.10;;
56728;SDS011;42612;52.232;7.560;2023-11-21T07:15:55;22.90;;;11.65;;
56728;SDS011;42612;52.232;7.560;2023-11-21T07:18:23;25.90;;;10.98;;
56728;SDS011;42612;52.232;7.560;2023-11-21T07:20:49;25.50;;;11.35;;
56728;SDS011;42612;52.232;7.560;2023-11-21T07:23:15;23.23;;;11.63;;
56728;SDS011;42612;52.232;7.560;2023-11-21T07:25:40;21.73;;;10.38;;
56728;SDS011;42612;52.232;7.560;2023-11-21T07:28:08;21.45;;;10.23;;
56728;SDS011;42612;52.232;7.560;2023-11-21T07:30:34;27.38;;;12.32;;
56728;SDS011;42612;52.232;7.560;2023-11-21T07:33:00;22.30;;;10.68;;
56728;SDS011;42612;52.232;7.560;2023-11-21T07:35:25;26.45;;;12.10;;
56728;SDS011;42612;52.232;7.560;2023-11-21T07:37:51;22.23;;;10.30;;
56728;SDS011;42612;52.232;7.560;2023-11-21T07:40:17;24.67;;;11.95;;
56728;SDS011;42612;52.232;7.560;2023-11-21T07:42:43;24.38;;;10.57;;
56728;SDS011;42612;52.232;7.560;2023-11-21T07:45:08;21.90;;;10.68;;
56728;SDS011;42612;52.232;7.560;2023-11-21T07:47:34;24.02;;;10.80;;
56728;SDS011;42612;52.232;7.560;2023-11-21T07:50:03;21.95;;;10.02;;
56728;SDS011;42612;52.232;7.560;2023-11-21T07:52:30;22.02;;;10.40;;
56728;SDS011;42612;52.232;7.560;2023-11-21T07:54:55;22.83;;;9.88;;
56728;SDS011;42612;52.232;7.560;2023-11-21T07:57:21;18.20;;;9.77;;
56728;SDS011;42612;52.232;7.560;2023-11-21T07:59:47;18.80;;;9.27;;
56728;SDS011;42612;52.232;7.560;2023-11-21T08:02:12;20.20;;;10.07;;
56728;SDS011;42612;52.232;7.560;2023-11-21T08:04:38;14.60;;;8.65;;
56728;SDS011;42612;52.232;7.560;2023-11-21T08:07:04;19.52;;;9.82;;
56728;SDS011;42612;52.232;7.560;2023-11-21T08:09:29;16.85;;;8.32;;
56728;SDS011;42612;52.232;7.560;2023-11-21T08:11:55;17.42;;;8.52;;
56728;SDS011;42612;52.232;7.560;2023-11-21T08:14:21;17.15;;;7.78;;
56728;SDS011;42612;52.232;7.560;2023-11-21T08:16:50;15.93;;;9.00;;
56728;SDS011;42612;52.232;7.560;2023-11-21T08:19:16;16.02;;;8.25;;
56728;SDS011;42612;52.232;7.560;2023-11-21T08:21:43;16.60;;;8.60;;
56728;SDS011;42612;52.232;7.560;2023-11-21T08:24:09;18.97;;;8.80;;
56728;SDS011;42612;52.232;7.560;2023-11-21T08:26:36;13.77;;;8.13;;
56728;SDS011;42612;52.232;7.560;2023-11-21T08:29:02;12.90;;;7.72;;
56728;SDS011;42612;52.232;7.560;2023-11-21T08:31:28;14.27;;;7.80;;
56728;SDS011;42612;52.232;7.560;2023-11-21T08:33:54;14.38;;;7.68;;
56728;SDS011;42612;52.232;7.560;2023-11-21T08:36:21;12.85;;;6.32;;
56728;SDS011;42612;52.232;7.560;2023-11-21T08:38:49;13.23;;;7.13;;
56728;SDS011;42612;52.232;7.560;2023-11-21T08:41:17;13.38;;;7.53;;
56728;SDS011;42612;52.232;7.560;2023-11-21T08:43:42;12.00;;;6.63;;
56728;SDS011;42612;52.232;7.560;2023-11-21T08:46:09;9.73;;;6.45;;
56728;SDS011;42612;52.232;7.560;2023-11-21T08:48:36;11.60;;;6.90;;
56728;SDS011;42612;52.232;7.560;2023-11-21T08:51:02;12.23;;;5.88;;
56728;SDS011;42612;52.232;7.560;2023-11-21T08:53:29;13.90;;;6.55;;
56728;SDS011;42612;52.232;7.560;2023-11-21T08:55:56;9.00;;;5.50;;
56728;SDS011;42612;52.232;7.560;2023-11-21T08:58:22;7.45;;;5.20;;
56728;SDS011;42612;52.232;7.560;2023-11-21T09:00:47;8.48;;;5.63;;
56728;SDS011;42612;52.232;7.560;2023-11-21T09:03:13;10.00;;;6.55;;
56728;SDS011;42612;52.232;7.560;2023-11-21T09:05:39;8.88;;;6.10;;
56728;SDS011;42612;52.232;7.560;2023-11-21T09:08:05;10.35;;;5.88;;
56728;SDS011;42612;52.232;7.560;2023-11-21T09:10:32;11.32;;;6.45;;
56728;SDS011;42612;52.232;7.560;2023-11-21T09:13:00;13.43;;;6.28;;
56728;SDS011;42612;52.232;7.560;2023-11-21T09:15:26;9.77;;;5.80;;
56728;SDS011;42612;52.232;7.560;2023-11-21T09:17:52;11.55;;;6.25;;
56728;SDS011;42612;52.232;7.560;2023-11-21T09:20:18;8.38;;;4.82;;
56728;SDS011;42612;52.232;7.560;2023-11-21T09:22:47;10.25;;;5.88;;
56728;SDS011;42612;52.232;7.560;2023-11-21T09:25:14;11.05;;;6.07;;
56728;SDS011;42612;52.232;7.560;2023-11-21T09:27:40;10.02;;;5.75;;
56728;SDS011;42612;52.232;7.560;2023-11-21T09:30:06;11.90;;;6.47;;
56728;SDS011;42612;52.232;7.560;2023-11-21T09:32:37;10.32;;;5.82;;
56728;SDS011;42612;52.232;7.560;2023-11-21T09:35:03;10.38;;;6.45;;
56728;SDS011;42612;52.232;7.560;2023-11-21T09:37:30;9.30;;;5.97;;
56728;SDS011;42612;52.232;7.560;2023-11-21T09:39:56;12.23;;;7.43;;
56728;SDS011;42612;52.232;7.560;2023-11-21T09:42:26;10.40;;;5.93;;
56728;SDS011;42612;52.232;7.560;2023-11-21T09:45:18;11.07;;;6.43;;
56728;SDS011;42612;52.232;7.560;2023-11-21T09:47:53;11.50;;;6.30;;
56728;SDS011;42612;52.232;7.560;2023-11-21T09:50:23;13.23;;;6.38;;
56728;SDS011;42612;52.232;7.560;2023-11-21T09:52:55;12.63;;;6.70;;
56728;SDS011;42612;52.232;7.560;2023-11-21T09:55:22;11.80;;;6.82;;
56728;SDS011;42612;52.232;7.560;2023-11-21T09:57:52;16.50;;;7.00;;
56728;SDS011;42612;52.232;7.560;2023-11-21T10:00:22;13.15;;;6.82;;
56728;SDS011;42612;52.232;7.560;2023-11-21T10:02:52;13.05;;;6.80;;
56728;SDS011;42612;52.232;7.560;2023-11-21T10:05:18;11.82;;;7.10;;
56728;SDS011;42612;52.232;7.560;2023-11-21T10:07:47;13.73;;;7.03;;
56728;SDS011;42612;52.232;7.560;2023-11-21T10:10:15;11.60;;;6.15;;
56728;SDS011;42612;52.232;7.560;2023-11-21T10:12:46;13.13;;;7.07;;
56728;SDS011;42612;52.232;7.560;2023-11-21T10:15:18;11.45;;;6.50;;
56728;SDS011;42612;52.232;7.560;2023-11-21T10:17:47;14.93;;;6.90;;
56728;SDS011;42612;52.232;7.560;2023-11-21T10:22:41;10.93;;;5.53;;
56728;SDS011;42612;52.232;7.560;2023-11-21T10:25:37;10.75;;;5.63;;
56728;SDS011;42612;52.232;7.560;2023-11-21T10:28:03;9.93;;;5.63;;
56728;SDS011;42612;52.232;7.560;2023-11-21T10:30:35;8.52;;;4.90;;
56728;SDS011;42612;52.232;7.560;2023-11-21T10:33:03;12.93;;;6.18;;
56728;SDS011;42612;52.232;7.560;2023-11-21T10:35:46;7.82;;;5.38;;
56728;SDS011;42612;52.232;7.560;2023-11-21T10:38:17;12.02;;;5.95;;
56728;SDS011;42612;52.232;7.560;2023-11-21T10:40:43;10.57;;;5.82;;
56728;SDS011;42612;52.232;7.560;2023-11-21T10:43:11;10.82;;;6.38;;
56728;SDS011;42612;52.232;7.560;2023-11-21T10:45:40;10.85;;;6.65;;
56728;SDS011;42612;52.232;7.560;2023-11-21T10:48:11;12.00;;;5.72;;
56728;SDS011;42612;52.232;7.560;2023-11-21T10:50:42;9.52;;;5.15;;
56728;SDS011;42612;52.232;7.560;2023-11-21T10:53:10;8.13;;;5.65;;
56728;SDS011;42612;52.232;7.560;2023-11-21T10:55:37;11.77;;;6.03;;
56728;SDS011;42612;52.232;7.560;2023-11-21T10:58:03;9.15;;;5.93;;
56728;SDS011;42612;52.232;7.560;2023-11-21T11:02:58;9.50;;;5.03;;
56728;SDS011;42612;52.232;7.560;2023-11-21T11:05:25;7.40;;;4.82;;
56728;SDS011;42612;52.232;7.560;2023-11-21T11:08:03;6.38;;;4.50;;
56728;SDS011;42612;52.232;7.560;2023-11-21T11:10:31;5.47;;;3.73;;
56728;SDS011;42612;52.232;7.560;2023-11-21T11:12:58;7.65;;;4.55;;
56728;SDS011;42612;52.232;7.560;2023-11-21T11:15:24;8.00;;;4.85;;
56728;SDS011;42612;52.232;7.560;2023-11-21T11:17:52;6.43;;;4.78;;
56728;SDS011;42612;52.232;7.560;2023-11-21T11:20:22;5.93;;;4.05;;
56728;SDS011;42612;52.232;7.560;2023-11-21T11:28:14;6.82;;;4.20;;
56728;SDS011;42612;52.232;7.560;2023-11-21T11:33:26;6.25;;;3.75;;
56728;SDS011;42612;52.232;7.560;2023-11-21T11:38:38;5.82;;;3.83;;
56728;SDS011;42612;52.232;7.560;2023-11-21T11:41:04;5.55;;;4.10;;
56728;SDS011;42612;52.232;7.560;2023-11-21T11:43:32;10.18;;;4.07;;
56728;SDS011;42612;52.232;7.560;2023-11-21T11:46:03;6.35;;;4.63;;
56728;SDS011;42612;52.232;7.560;2023-11-21T11:48:28;8.75;;;5.60;;
56728;SDS011;42612;52.232;7.560;2023-11-21T11:51:01;8.88;;;5.90;;
56728;SDS011;42612;52.232;7.560;2023-11-21T11:53:40;7.82;;;5.80;;
56728;SDS011;42612;52.232;7.560;2023-11-21T11:58:59;8.55;;;6.13;;
56728;SDS011;42612;52.232;7.560;2023-11-21T12:01:32;8.82;;;5.70;;
56728;SDS011;42612;52.232;7.560;2023-11-21T12:06:40;7.93;;;5.88;;
56728;SDS011;42612;52.232;7.560;2023-11-21T12:11:43;8.32;;;6.30;;
56728;SDS011;42612;52.232;7.560;2023-11-21T12:14:09;8.18;;;5.43;;
56728;SDS011;42612;52.232;7.560;2023-11-21T12:16:35;7.57;;;5.05;;
56728;SDS011;42612;52.232;7.560;2023-11-21T12:19:00;7.40;;;5.55;;
56728;SDS011;42612;52.232;7.560;2023-11-21T12:21:26;7.88;;;5.75;;
56728;SDS011;42612;52.232;7.560;2023-11-21T12:23:52;6.35;;;4.85;;
56728;SDS011;42612;52.232;7.560;2023-11-21T12:26:18;7.32;;;5.60;;
56728;SDS011;42612;52.232;7.560;2023-11-21T12:28:51;8.95;;;6.13;;
56728;SDS011;42612;52.232;7.560;2023-11-21T12:31:20;10.50;;;5.28;;
56728;SDS011;42612;52.232;7.560;2023-11-21T12:33:49;6.93;;;5.60;;
56728;SDS011;42612;52.232;7.560;2023-11-21T12:36:15;7.47;;;5.03;;
56728;SDS011;42612;52.232;7.560;2023-11-21T12:38:41;7.78;;;6.07;;
56728;SDS011;42612;52.232;7.560;2023-11-21T12:41:07;6.60;;;4.93;;
56728;SDS011;42612;52.232;7.560;2023-11-21T12:43:36;7.80;;;5.68;;
56728;SDS011;42612;52.232;7.560;2023-11-21T12:46:07;6.30;;;4.78;;
56728;SDS011;42612;52.232;7.560;2023-11-21T12:48:38;6.60;;;4.65;;
56728;SDS011;42612;52.232;7.560;2023-11-21T12:51:08;7.50;;;5.35;;
56728;SDS011;42612;52.232;7.560;2023-11-21T12:53:36;6.57;;;4.97;;
56728;SDS011;42612;52.232;7.560;2023-11-21T12:56:10;7.55;;;4.97;;
56728;SDS011;42612;52.232;7.560;2023-11-21T12:58:37;9.65;;;5.30;;
56728;SDS011;42612;52.232;7.560;2023-11-21T13:03:36;7.50;;;4.38;;
56728;SDS011;42612;52.232;7.560;2023-11-21T13:06:04;7.70;;;5.13;;
56728;SDS011;42612;52.232;7.560;2023-11-21T13:08:30;11.90;;;5.20;;
56728;SDS011;42612;52.232;7.560;2023-11-21T13:10:58;5.93;;;4.30;;
56728;SDS011;42612;52.232;7.560;2023-11-21T13:13:24;8.05;;;5.00;;
56728;SDS011;42612;52.232;7.560;2023-11-21T13:15:57;5.97;;;4.50;;
56728;SDS011;42612;52.232;7.560;2023-11-21T13:18:30;5.57;;;4.72;;
56728;SDS011;42612;52.232;7.560;2023-11-21T13:20:57;5.22;;;4.38;;
56728;SDS011;42612;52.232;7.560;2023-11-21T13:23:25;9.68;;;4.43;;
56728;SDS011;42612;52.232;7.560;2023-11-21T13:25:52;7.20;;;4.20;;
56728;SDS011;42612;52.232;7.560;2023-11-21T13:28:19;6.60;;;5.10;;
56728;SDS011;42612;52.232;7.560;2023-11-21T13:30:46;7.05;;;4.45;;
56728;SDS011;42612;52.232;7.560;2023-11-21T13:33:13;8.20;;;4.70;;
56728;SDS011;42612;52.232;7.560;2023-11-21T13:35:52;4.78;;;3.97;;
56728;SDS011;42612;52.232;7.560;2023-11-21T13:38:18;6.38;;;4.10;;
56728;SDS011;42612;52.232;7.560;2023-11-21T13:40:48;6.15;;;4.28;;
56728;SDS011;42612;52.232;7.560;2023-11-21T13:43:18;4.90;;;4.10;;
56728;SDS011;42612;52.232;7.560;2023-11-21T13:45:53;6.18;;;4.50;;
56728;SDS011;42612;52.232;7.560;2023-11-21T13:48:31;8.45;;;6.05;;
56728;SDS011;42612;52.232;7.560;2023-11-21T13:51:20;12.07;;;7.05;;
56728;SDS011;42612;52.232;7.560;2023-11-21T13:53:55;8.23;;;7.32;;
56728;SDS011;42612;52.232;7.560;2023-11-21T13:56:22;7.07;;;5.53;;
56728;SDS011;42612;52.232;7.560;2023-11-21T13:58:52;5.13;;;4.03;;
56728;SDS011;42612;52.232;7.560;2023-11-21T14:01:19;5.68;;;4.05;;
56728;SDS011;42612;52.232;7.560;2023-11-21T14:03:55;5.90;;;4.72;;
56728;SDS011;42612;52.232;7.560;2023-11-21T14:06:40;6.57;;;4.07;;
56728;SDS011;42612;52.232;7.560;2023-11-21T14:09:14;7.43;;;4.32;;
56728;SDS011;42612;52.232;7.560;2023-11-21T14:11:54;5.30;;;4.50;;
56728;SDS011;42612;52.232;7.560;2023-11-21T14:14:24;7.28;;;4.95;;
56728;SDS011;42612;52.232;7.560;2023-11-21T14:16:53;6.55;;;5.20;;
56728;SDS011;42612;52.232;7.560;2023-11-21T14:19:20;7.78;;;5.45;;
56728;SDS011;42612;52.232;7.560;2023-11-21T14:21:47;5.25;;;4.63;;
56728;SDS011;42612;52.232;7.560;2023-11-21T14:24:15;6.78;;;4.60;;
56728;SDS011;42612;52.232;7.560;2023-11-21T14:26:45;6.53;;;5.50;;
56728;SDS011;42612;52.232;7.560;2023-11-21T14:29:12;7.38;;;5.60;;
56728;SDS011;42612;52.232;7.560;2023-11-21T14:31:41;6.72;;;5.03;;
56728;SDS011;42612;52.232;7.560;2023-11-21T14:34:07;6.35;;;5.07;;
56728;SDS011;42612;52.232;7.560;2023-11-21T14:36:33;6.85;;;4.43;;
56728;SDS011;42612;52.232;7.560;2023-11-21T14:39:01;5.60;;;4.32;;
56728;SDS011;42612;52.232;7.560;2023-11-21T14:41:32;8.50;;;5.25;;
56728;SDS011;42612;52.232;7.560;2023-11-21T14:44:00;7.07;;;5.03;;
56728;SDS011;42612;52.232;7.560;2023-11-21T14:46:27;5.75;;;4.75;;
56728;SDS011;42612;52.232;7.560;2023-11-21T14:48:53;7.43;;;4.03;;
56728;SDS011;42612;52.232;7.560;2023-11-21T14:51:39;13.68;;;8.55;;
56728;SDS011;42612;52.232;7.560;2023-11-21T14:54:25;13.30;;;8.55;;
56728;SDS011;42612;52.232;7.560;2023-11-21T14:57:08;11.65;;;8.60;;
56728;SDS011;42612;52.232;7.560;2023-11-21T14:59:37;10.18;;;7.68;;
56728;SDS011;42612;52.232;7.560;2023-11-21T15:02:09;6.85;;;5.28;;
56728;SDS011;42612;52.232;7.560;2023-11-21T15:04:45;5.68;;;4.60;;
56728;SDS011;42612;52.232;7.560;2023-11-21T15:07:12;7.87;;;5.63;;